KWYS/WYS METAR and TAF weather

Enter ICAO airport designator
Station Type Date Time Source
KWYS METAR 2020/01/19 06:10 UTC NOAA

KWYS 190610Z AUTO 15003KT 10SM -SN SCT019 BKN039 OVC044 M08/M09 A3039 RMK AO2


Station Type Date Time Source
KWYS Decoded METAR 2020/01/19 06:10 UTC NOAA

West Yellowstone, MT, United States (KWYS) 44-41N 111-07W
Jan 19, 2020 - 01:10 AM EST / 2020.01.19 0610 UTC
Wind: from the SSE (150 degrees) at 3 MPH (3 KT):0
Visibility: 10 mile(s):0
Sky conditions: overcast
Weather: light snow
Temperature: 17 F (-8 C)
Dew Point: 15 F (-9 C)
Relative Humidity: 92%
Pressure (altimeter): 30.39 in. Hg (1029 hPa)
ob: KWYS 190610Z AUTO 15003KT 10SM -SN SCT019 BKN039 OVC044 M08/M09 A3039 RMK AO2
cycle: 6

Station Type Date Time Source
KWYS TAF 2020/01/20 18:32 UTC NOAA

TAF KWYS 201732Z 2018/2118 VRB03KT P6SM SCT100 BKN150
TEMPO 2018/2019 1SM BR SCT005
FM210400 VRB04KT P6SM VCSH SCT030 BKN060 PROB30 2106/2110 2SM -SHSN BKN020
FM211100 VRB03KT P6SM SCT030 BKN050 PROB30 2111/2115 3SM -SHSN BR BKN015

Example: see airport list